createdAt,value
2023-04-26T00:02:19.403Z,9.20
2023-04-26T00:07:23.674Z,9.12
2023-04-26T00:12:25.699Z,9.06
2023-04-26T00:17:27.348Z,9.01
2023-04-26T00:22:28.973Z,9.06
2023-04-26T00:27:30.618Z,9.00
2023-04-26T00:32:32.341Z,8.97
2023-04-26T00:37:34.067Z,8.98
2023-04-26T00:42:36.007Z,8.90
2023-04-26T00:47:38.477Z,8.77
2023-04-26T00:52:40.424Z,8.62
2023-04-26T00:57:42.112Z,8.59
2023-04-26T01:02:44.023Z,8.49
2023-04-26T01:07:46.863Z,8.47
2023-04-26T01:12:48.900Z,8.44
2023-04-26T01:17:52.779Z,8.30
2023-04-26T01:22:54.429Z,8.34
2023-04-26T01:27:56.096Z,8.25
2023-04-26T01:33:00.056Z,8.23
2023-04-26T01:38:01.815Z,8.13
2023-04-26T01:43:03.401Z,8.11
2023-04-26T01:48:05.647Z,8.06
2023-04-26T01:53:07.448Z,7.92
2023-04-26T01:58:10.568Z,7.83
2023-04-26T02:03:12.339Z,7.75
2023-04-26T02:08:14.191Z,7.73
2023-04-26T02:13:15.880Z,7.61
2023-04-26T02:18:17.932Z,7.54
2023-04-26T02:23:19.827Z,7.48
2023-04-26T02:28:21.492Z,7.46
2023-04-26T02:33:23.373Z,7.34
2023-04-26T02:38:28.430Z,7.39
2023-04-26T02:43:32.320Z,7.29
2023-04-26T02:48:33.952Z,7.18
2023-04-26T02:53:35.930Z,7.14
2023-04-26T02:58:37.920Z,7.05
2023-04-26T03:03:40.563Z,6.91
2023-04-26T03:08:42.374Z,6.77
2023-04-26T03:13:44.110Z,6.75
2023-04-26T03:18:46.135Z,6.63
2023-04-26T03:23:47.971Z,6.56
2023-04-26T03:28:50.631Z,6.43
2023-04-26T03:33:52.678Z,6.36
2023-04-26T03:38:54.886Z,6.35
2023-04-26T03:43:56.880Z,6.37
2023-04-26T03:48:58.678Z,6.37
2023-04-26T03:54:00.319Z,6.47
2023-04-26T03:59:02.426Z,6.69
2023-04-26T04:04:04.459Z,6.88
2023-04-26T04:09:06.737Z,7.16
2023-04-26T04:14:08.829Z,7.67
2023-04-26T04:19:10.909Z,7.74
2023-04-26T04:24:12.906Z,7.62
2023-04-26T04:29:15.929Z,7.54
2023-04-26T04:34:19.014Z,7.53
2023-04-26T04:39:21.487Z,7.82
2023-04-26T04:44:24.257Z,8.58
2023-04-26T04:49:28.945Z,9.23
2023-04-26T04:54:30.888Z,9.78
2023-04-26T04:59:33.394Z,10.35
2023-04-26T05:04:35.894Z,11.01
2023-04-26T05:09:38.607Z,11.49
2023-04-26T05:14:41.663Z,11.77
2023-04-26T05:19:43.528Z,12.34
2023-04-26T05:24:46.836Z,12.79
2023-04-26T05:29:49.918Z,12.88
2023-04-26T05:35:20.787Z,12.82
2023-04-26T05:40:22.479Z,12.46
2023-04-26T05:45:24.804Z,12.22
2023-04-26T05:50:27.079Z,12.01
2023-04-26T05:55:28.777Z,11.90
2023-04-26T06:00:30.611Z,11.86
2023-04-26T06:05:32.679Z,11.88
2023-04-26T06:10:35.937Z,11.59
2023-04-26T06:15:37.675Z,11.57
2023-04-26T06:20:40.339Z,11.40
2023-04-26T06:25:45.680Z,11.39
2023-04-26T06:30:48.774Z,11.59
2023-04-26T06:35:50.748Z,11.54
2023-04-26T06:40:53.842Z,11.41
2023-04-26T06:45:55.559Z,11.87
2023-04-26T06:50:57.631Z,12.05
2023-04-26T06:55:59.380Z,11.82
2023-04-26T07:01:01.275Z,12.16
2023-04-26T07:06:02.943Z,12.31
2023-04-26T07:11:10.367Z,12.23
2023-04-26T07:16:12.084Z,12.57
2023-04-26T07:21:14.479Z,12.76
2023-04-26T07:26:16.185Z,12.77
2023-04-26T07:31:18.419Z,12.89
2023-04-26T07:36:20.393Z,13.29
2023-04-26T07:41:23.275Z,13.67
2023-04-26T07:46:25.275Z,14.15
2023-04-26T07:51:27.743Z,14.34
2023-04-26T07:56:29.364Z,14.08
2023-04-26T08:01:30.982Z,14.14
2023-04-26T08:06:33.287Z,13.87
2023-04-26T08:11:35.037Z,14.16
2023-04-26T08:16:36.887Z,14.29
2023-04-26T08:21:38.734Z,14.71
2023-04-26T08:26:41.169Z,14.75
2023-04-26T08:31:42.943Z,14.18
2023-04-26T08:36:45.868Z,14.23
2023-04-26T08:41:53.074Z,14.73
2023-04-26T08:46:57.668Z,15.04
2023-04-26T08:52:01.053Z,14.88
2023-04-26T08:57:03.367Z,14.67
2023-04-26T09:02:07.202Z,14.90
2023-04-26T09:07:12.452Z,14.99
2023-04-26T09:12:16.166Z,15.06
2023-04-26T09:17:36.838Z,14.71
2023-04-26T09:22:38.922Z,15.33
2023-04-26T09:27:46.206Z,15.67
2023-04-26T09:32:57.209Z,15.24
2023-04-26T09:38:13.587Z,14.37
2023-04-26T09:43:21.075Z,14.67
2023-04-26T09:48:30.395Z,15.18
2023-04-26T09:53:36.949Z,14.57
2023-04-26T09:58:40.643Z,14.88
2023-04-26T10:03:43.936Z,14.64
2023-04-26T10:08:45.813Z,14.14
2023-04-26T10:13:50.935Z,14.55
2023-04-26T10:18:52.776Z,15.23
2023-04-26T10:23:54.842Z,15.15
2023-04-26T10:29:02.108Z,14.55
2023-04-26T10:34:21.458Z,14.40
2023-04-26T10:39:23.414Z,14.63
2023-04-26T10:44:40.278Z,13.96
2023-04-26T10:49:46.859Z,14.10
2023-04-26T10:54:52.521Z,14.37
2023-04-26T11:00:16.934Z,13.92
2023-04-26T11:05:42.716Z,14.48
2023-04-26T11:10:51.019Z,15.79
2023-04-26T11:15:54.553Z,13.70
2023-04-26T11:20:57.390Z,14.07
2023-04-26T11:26:09.487Z,14.37
2023-04-26T11:31:11.652Z,14.70
2023-04-26T11:36:14.197Z,15.10
2023-04-26T11:41:15.991Z,15.25
2023-04-26T11:46:20.846Z,15.30
2023-04-26T11:51:23.999Z,15.01
2023-04-26T11:56:26.064Z,15.15
2023-04-26T12:01:29.828Z,14.61
2023-04-26T12:06:46.339Z,14.15
2023-04-26T12:11:58.967Z,14.49
2023-04-26T12:17:03.079Z,15.01
2023-04-26T12:22:06.055Z,15.92
2023-04-26T12:27:08.012Z,14.75
2023-04-26T12:32:09.708Z,14.06
2023-04-26T12:37:12.025Z,13.69
2023-04-26T12:42:13.640Z,14.98
2023-04-26T12:47:15.523Z,14.87
2023-04-26T12:52:17.123Z,14.55
2023-04-26T12:57:20.888Z,14.28
2023-04-26T13:02:23.183Z,14.89
2023-04-26T13:07:25.072Z,14.44
2023-04-26T13:12:27.715Z,14.77
2023-04-26T13:17:29.325Z,15.02
2023-04-26T13:22:31.528Z,15.17
2023-04-26T13:27:33.151Z,16.00
2023-04-26T13:32:35.065Z,16.43
2023-04-26T13:37:37.030Z,15.09
2023-04-26T13:42:39.483Z,14.67
2023-04-26T13:47:41.694Z,14.66
2023-04-26T13:52:43.373Z,14.79
2023-04-26T13:57:45.352Z,14.71
2023-04-26T14:02:47.407Z,14.47
2023-04-26T14:07:49.133Z,14.46
2023-04-26T14:12:50.758Z,14.52
2023-04-26T14:17:52.404Z,14.49
2023-04-26T14:22:54.180Z,13.79
2023-04-26T14:27:55.892Z,14.20
2023-04-26T14:32:57.885Z,14.38
2023-04-26T14:37:59.645Z,13.95
2023-04-26T14:43:01.289Z,13.77
2023-04-26T14:48:03.802Z,14.00
2023-04-26T14:53:05.760Z,14.09
2023-04-26T14:58:07.935Z,14.14
2023-04-26T15:03:09.771Z,13.83
2023-04-26T15:08:11.587Z,14.10
2023-04-26T15:13:13.326Z,14.33
2023-04-26T15:18:15.212Z,14.45
2023-04-26T15:23:17.163Z,14.01
2023-04-26T15:28:18.997Z,14.09
2023-04-26T15:33:20.811Z,14.00
2023-04-26T15:38:23.201Z,13.79
2023-04-26T15:43:25.261Z,13.22
2023-04-26T15:48:26.947Z,12.91
2023-04-26T15:53:28.797Z,12.94
2023-04-26T15:58:30.812Z,12.84
2023-04-26T16:03:32.526Z,12.99
2023-04-26T16:13:40.720Z,13.26
2023-04-26T16:18:43.814Z,12.99
2023-04-26T16:23:45.537Z,12.87
2023-04-26T16:28:47.273Z,12.81
2023-04-26T16:33:48.878Z,12.67
2023-04-26T16:38:50.950Z,12.86
2023-04-26T16:43:54.226Z,12.96
2023-04-26T16:48:55.989Z,12.97
2023-04-26T16:53:57.922Z,12.74
2023-04-26T16:58:59.780Z,12.55
2023-04-26T17:04:01.995Z,12.46
2023-04-26T17:09:04.530Z,12.23
2023-04-26T17:14:06.263Z,12.24
2023-04-26T17:19:08.287Z,12.18
2023-04-26T17:24:09.869Z,12.31
2023-04-26T17:29:11.636Z,12.32
2023-04-26T17:34:13.252Z,12.02
2023-04-26T17:39:15.058Z,11.87
2023-04-26T17:44:16.736Z,11.70
2023-04-26T17:49:18.409Z,11.41
2023-04-26T17:54:20.118Z,11.34
2023-04-26T17:59:21.969Z,11.36
2023-04-26T18:04:23.949Z,11.29
2023-04-26T18:09:26.105Z,11.15
2023-04-26T18:14:27.970Z,11.08
2023-04-26T18:19:29.794Z,10.83
2023-04-26T18:24:31.589Z,10.68
2023-04-26T18:29:33.496Z,10.59
2023-04-26T18:34:35.494Z,10.56
2023-04-26T18:39:37.131Z,10.62
2023-04-26T18:44:39.088Z,10.47
2023-04-26T18:49:40.750Z,10.36
2023-04-26T18:54:42.388Z,10.22
2023-04-26T18:59:44.187Z,10.12
2023-04-26T19:04:49.732Z,9.82
2023-04-26T19:09:54.467Z,9.82
2023-04-26T19:14:56.844Z,9.82
2023-04-26T19:19:58.750Z,9.78
2023-04-26T19:25:01.124Z,9.77
2023-04-26T19:30:03.242Z,9.68
2023-04-26T19:35:06.143Z,9.64
2023-04-26T19:40:10.056Z,9.56
2023-04-26T19:45:12.026Z,9.49
2023-04-26T19:50:13.708Z,9.41
2023-04-26T19:55:15.384Z,9.35
2023-04-26T20:00:17.162Z,9.30
2023-04-26T20:05:18.937Z,9.28
2023-04-26T20:10:23.844Z,9.24
2023-04-26T20:15:26.565Z,9.23
2023-04-26T20:20:28.243Z,9.16
2023-04-26T20:25:29.953Z,9.11
2023-04-26T20:30:33.700Z,9.05
2023-04-26T20:35:35.638Z,9.03
2023-04-26T20:40:37.695Z,8.90
2023-04-26T20:45:40.711Z,8.79
2023-04-26T20:50:42.440Z,8.72
2023-04-26T20:55:44.073Z,8.62
2023-04-26T21:00:49.410Z,8.54
2023-04-26T21:05:51.366Z,8.47
2023-04-26T21:10:52.981Z,8.40
2023-04-26T21:15:54.658Z,8.29
2023-04-26T21:20:56.958Z,8.20
2023-04-26T21:25:58.824Z,8.10
2023-04-26T21:31:07.088Z,8.13
2023-04-26T21:36:09.351Z,8.10
2023-04-26T21:41:10.964Z,8.14
2023-04-26T21:46:12.861Z,8.13
2023-04-26T21:51:14.561Z,8.01
2023-04-26T21:56:16.475Z,7.95
2023-04-26T22:01:18.298Z,7.93
2023-04-26T22:06:20.364Z,7.93
2023-04-26T22:11:22.249Z,7.87
2023-04-26T22:16:23.927Z,7.88
2023-04-26T22:21:27.030Z,7.85
2023-04-26T22:26:28.724Z,7.88
2023-04-26T22:31:30.343Z,7.88
2023-04-26T22:36:32.617Z,7.89
2023-04-26T22:41:34.414Z,7.93
2023-04-26T22:46:36.319Z,7.92
2023-04-26T22:51:37.884Z,7.89
2023-04-26T22:56:39.592Z,7.88
2023-04-26T23:01:41.298Z,7.92
2023-04-26T23:06:44.413Z,7.88
2023-04-26T23:11:46.227Z,7.87
2023-04-26T23:16:47.888Z,7.82
2023-04-26T23:21:49.541Z,7.74
2023-04-26T23:26:51.267Z,7.73
2023-04-26T23:31:54.550Z,7.73
2023-04-26T23:36:56.312Z,7.71
2023-04-26T23:41:57.901Z,7.68
2023-04-26T23:46:59.593Z,7.66
2023-04-26T23:52:01.441Z,7.58
2023-04-26T23:57:04.528Z,7.61
